createdAt,value
2018-08-07T00:03:59.727Z,20.20
2018-08-07T00:08:03.743Z,20.10
2018-08-07T00:12:07.616Z,20.00
2018-08-07T00:16:11.507Z,20.00
2018-08-07T00:20:16.711Z,20.00
2018-08-07T00:24:20.628Z,19.90
2018-08-07T00:28:24.484Z,19.90
2018-08-07T00:32:28.463Z,19.80
2018-08-07T00:36:32.318Z,19.80
2018-08-07T00:40:36.284Z,19.80
2018-08-07T00:48:43.899Z,19.60
2018-08-07T00:52:48.607Z,19.40
2018-08-07T00:56:52.531Z,19.30
2018-08-07T01:00:56.376Z,19.20
2018-08-07T01:05:00.293Z,19.20
2018-08-07T01:09:05.855Z,19.10
2018-08-07T01:13:09.740Z,19.10
2018-08-07T01:17:13.600Z,19.00
2018-08-07T01:21:17.519Z,19.10
2018-08-07T01:25:23.439Z,18.90
2018-08-07T01:29:27.330Z,18.90
2018-08-07T01:33:31.176Z,18.80
2018-08-07T01:37:35.148Z,18.80
2018-08-07T01:41:38.999Z,18.80
2018-08-07T01:45:43.120Z,18.80
2018-08-07T01:49:46.963Z,18.70
2018-08-07T01:53:50.929Z,18.70
2018-08-07T01:57:54.795Z,18.70
2018-08-07T02:01:58.778Z,18.70
2018-08-07T02:06:02.631Z,18.60
2018-08-07T02:10:08.811Z,18.60
2018-08-07T02:14:12.659Z,18.50
2018-08-07T02:18:16.539Z,18.50
2018-08-07T02:22:20.392Z,18.50
2018-08-07T02:26:24.376Z,18.40
2018-08-07T02:30:28.224Z,18.40
2018-08-07T02:34:32.252Z,18.30
2018-08-07T02:38:36.037Z,18.20
2018-08-07T02:42:39.972Z,18.20
2018-08-07T02:46:43.928Z,18.10
2018-08-07T02:50:47.828Z,18.10
2018-08-07T02:54:51.676Z,18.10
2018-08-07T02:58:55.663Z,18.00
2018-08-07T03:02:59.533Z,18.00
2018-08-07T03:07:03.435Z,17.90
2018-08-07T03:11:07.328Z,17.80
2018-08-07T03:15:13.979Z,17.80
2018-08-07T03:19:17.818Z,17.80
2018-08-07T03:23:21.782Z,17.70
2018-08-07T03:27:25.715Z,17.70
2018-08-07T03:31:29.632Z,17.70
2018-08-07T03:35:33.485Z,17.70
2018-08-07T03:39:37.387Z,17.70
2018-08-07T03:43:41.243Z,17.70
2018-08-07T03:47:46.091Z,17.60
2018-08-07T03:51:49.940Z,17.70
2018-08-07T03:55:53.904Z,17.60
2018-08-07T03:59:57.784Z,17.70
2018-08-07T04:04:01.776Z,17.70
2018-08-07T04:08:05.712Z,17.60
2018-08-07T04:12:09.676Z,17.60
2018-08-07T04:16:13.541Z,17.60
2018-08-07T04:20:18.581Z,17.60
2018-08-07T04:24:22.423Z,17.60
2018-08-07T04:28:26.403Z,17.60
2018-08-07T04:32:30.355Z,17.60
2018-08-07T04:36:34.344Z,17.60
2018-08-07T04:40:38.279Z,17.60
2018-08-07T04:44:42.249Z,17.60
2018-08-07T04:48:46.291Z,17.70
2018-08-07T04:52:50.275Z,17.70
2018-08-07T04:56:54.149Z,17.90
2018-08-07T05:00:58.280Z,17.90
2018-08-07T05:05:02.149Z,18.10
2018-08-07T05:09:07.300Z,18.20
2018-08-07T05:13:11.148Z,18.30
2018-08-07T05:17:15.254Z,18.50
2018-08-07T05:21:19.188Z,18.60
2018-08-07T05:25:23.153Z,18.80
2018-08-07T05:29:27.004Z,18.90
2018-08-07T05:33:31.215Z,19.10
2018-08-07T05:37:35.172Z,19.20
2018-08-07T05:41:39.133Z,19.40
2018-08-07T05:45:42.988Z,19.60
2018-08-07T05:49:47.180Z,19.70
2018-08-07T05:53:51.039Z,20.00
2018-08-07T05:57:55.013Z,20.30
2018-08-07T06:01:58.803Z,20.50
2018-08-07T06:06:02.794Z,20.70
2018-08-07T06:10:08.005Z,21.00
2018-08-07T06:14:12.212Z,21.20
2018-08-07T06:18:16.328Z,21.50
2018-08-07T06:22:20.179Z,22.00
2018-08-07T06:26:24.089Z,23.10
2018-08-07T06:30:27.940Z,25.20
2018-08-07T06:34:31.895Z,27.00
2018-08-07T06:38:35.752Z,28.20
2018-08-07T06:42:39.700Z,29.30
2018-08-07T06:46:43.548Z,30.40
2018-08-07T06:50:47.577Z,31.40
2018-08-07T06:54:51.428Z,32.30
2018-08-07T06:58:55.390Z,32.80
2018-08-07T07:02:59.228Z,32.60
2018-08-07T07:07:03.104Z,31.60
2018-08-07T07:11:07.029Z,31.30
2018-08-07T07:19:16.052Z,30.90
2018-08-07T07:23:20.159Z,30.90
2018-08-07T07:31:27.594Z,31.70
2018-08-07T07:35:31.443Z,31.70
2018-08-07T07:39:35.449Z,31.80
2018-08-07T07:43:39.297Z,32.40
2018-08-07T07:47:43.281Z,32.40
2018-08-07T07:51:47.128Z,32.20
2018-08-07T07:55:51.152Z,32.10
2018-08-07T07:59:55.066Z,32.10
2018-08-07T08:03:58.961Z,32.00
2018-08-07T08:08:02.885Z,31.80
2018-08-07T08:12:06.872Z,31.80
2018-08-07T08:16:10.736Z,32.20
2018-08-07T08:20:16.984Z,32.20
2018-08-07T08:24:20.831Z,32.20
2018-08-07T08:28:24.688Z,31.90
2018-08-07T08:32:28.524Z,31.90
2018-08-07T08:36:32.515Z,31.90
2018-08-07T08:40:36.370Z,31.80
2018-08-07T08:44:40.367Z,31.70
2018-08-07T08:48:44.278Z,31.70
2018-08-07T08:52:48.100Z,31.70
2018-08-07T08:56:51.968Z,31.40
2018-08-07T09:00:55.851Z,31.30
2018-08-07T09:09:03.499Z,31.10
2018-08-07T09:13:07.351Z,31.20
2018-08-07T09:17:11.324Z,31.60
2018-08-07T09:21:15.345Z,31.60
2018-08-07T09:25:19.950Z,31.70
2018-08-07T09:29:23.920Z,31.80
2018-08-07T09:33:27.788Z,31.90
2018-08-07T09:37:31.645Z,31.90
2018-08-07T09:41:35.625Z,32.00
2018-08-07T09:45:39.604Z,32.20
2018-08-07T09:49:43.583Z,32.20
2018-08-07T09:53:47.428Z,32.40
2018-08-07T09:57:51.300Z,32.50
2018-08-07T10:02:00.654Z,32.60
2018-08-07T10:06:04.639Z,32.60
2018-08-07T10:10:08.480Z,32.80
2018-08-07T10:18:15.856Z,33.10
2018-08-07T10:22:19.940Z,33.00
2018-08-07T10:26:23.783Z,33.10
2018-08-07T10:30:27.714Z,33.20
2018-08-07T10:34:31.504Z,33.30
2018-08-07T10:42:38.956Z,33.40
2018-08-07T10:46:43.187Z,33.50
2018-08-07T10:50:47.072Z,33.50
2018-08-07T11:02:58.539Z,33.80
2018-08-07T11:07:02.394Z,33.80
2018-08-07T11:15:14.403Z,33.90
2018-08-07T11:23:21.968Z,34.10
2018-08-07T11:31:29.428Z,34.00
2018-08-07T11:39:36.920Z,34.30
2018-08-07T12:03:58.556Z,34.50
2018-08-07T12:08:02.590Z,34.50
2018-08-07T12:12:06.489Z,34.50
2018-08-07T12:16:10.513Z,34.50
2018-08-07T12:28:21.628Z,34.40
2018-08-07T12:36:29.139Z,34.30
2018-08-07T12:48:40.108Z,34.10
2018-08-07T12:52:44.016Z,34.00
2018-08-07T13:04:56.373Z,33.90
2018-08-07T13:13:03.831Z,34.00
2018-08-07T13:21:11.481Z,33.90
2018-08-07T13:25:17.628Z,33.80
2018-08-07T13:29:25.738Z,33.90
2018-08-07T13:33:43.236Z,34.00
2018-08-07T13:45:55.484Z,34.00
2018-08-07T14:02:10.048Z,33.80
2018-08-07T14:10:18.223Z,33.90
2018-08-07T14:14:22.069Z,33.90
2018-08-07T14:18:25.948Z,33.90
2018-08-07T14:22:29.801Z,33.90
2018-08-07T14:30:37.460Z,33.80
2018-08-07T14:34:41.328Z,33.80
2018-08-07T14:42:49.473Z,33.80
2018-08-07T14:46:53.326Z,33.80
2018-08-07T14:50:57.228Z,33.70
2018-08-07T15:03:08.316Z,33.60
2018-08-07T15:07:12.188Z,33.60
2018-08-07T15:15:24.144Z,33.50
2018-08-07T15:23:31.607Z,33.50
2018-08-07T15:43:49.900Z,33.10
2018-08-07T15:47:53.943Z,33.10
2018-08-07T15:51:57.782Z,33.00
2018-08-07T16:00:07.032Z,32.80
2018-08-07T16:12:18.125Z,32.60
2018-08-07T16:20:25.555Z,32.40
2018-08-07T16:24:29.419Z,32.30
2018-08-07T16:32:36.957Z,32.10
2018-08-07T16:36:40.940Z,32.00
2018-08-07T16:40:44.783Z,31.90
2018-08-07T16:52:56.619Z,31.60
2018-08-07T17:05:12.148Z,31.20
2018-08-07T17:09:16.027Z,31.10
2018-08-07T17:21:26.917Z,31.20
2018-08-07T17:25:30.846Z,31.20
2018-08-07T17:29:35.012Z,31.10
2018-08-07T17:37:42.432Z,31.00
2018-08-07T17:49:53.480Z,30.50
2018-08-07T17:53:57.327Z,30.30
2018-08-07T18:02:04.801Z,30.00
2018-08-07T18:06:08.919Z,29.80
2018-08-07T18:10:44.812Z,29.90
2018-08-07T18:14:47.948Z,29.70
2018-08-07T18:18:51.178Z,29.60
2018-08-07T18:22:54.387Z,29.20
2018-08-07T18:31:00.708Z,29.00
2018-08-07T18:35:04.325Z,28.90
2018-08-07T18:39:08.580Z,28.80
2018-08-07T18:43:11.676Z,28.60
2018-08-07T18:47:14.780Z,28.50
2018-08-07T18:55:20.808Z,28.10
2018-08-07T18:59:23.872Z,28.00
2018-08-07T19:03:27.018Z,27.80
2018-08-07T19:07:30.103Z,27.70
2018-08-07T19:11:33.260Z,27.60
2018-08-07T19:19:39.251Z,27.30
2018-08-07T19:23:42.320Z,27.20
2018-08-07T19:31:48.536Z,27.00
2018-08-07T19:35:51.647Z,26.90
2018-08-07T19:39:54.726Z,26.80
2018-08-07T19:43:57.881Z,26.70
2018-08-07T19:48:00.952Z,26.60
2018-08-07T19:56:07.525Z,26.40
2018-08-07T20:08:19.712Z,26.10
2018-08-07T20:12:22.798Z,26.00
2018-08-07T20:16:26.012Z,25.90
2018-08-07T20:20:29.104Z,25.80
2018-08-07T20:28:35.179Z,25.80
2018-08-07T20:32:38.696Z,25.70
2018-08-07T20:36:41.764Z,25.60
2018-08-07T20:40:44.979Z,25.60
2018-08-07T20:44:48.060Z,25.50
2018-08-07T20:48:51.172Z,25.40
2018-08-07T20:52:54.912Z,25.40
2018-08-07T20:56:58.128Z,25.30
2018-08-07T21:01:01.201Z,25.20
2018-08-07T21:05:04.727Z,25.10
2018-08-07T21:13:11.757Z,25.00
2018-08-07T21:17:14.834Z,25.00
2018-08-07T21:21:17.945Z,25.00
2018-08-07T21:25:22.432Z,24.90
2018-08-07T21:29:25.636Z,24.80
2018-08-07T21:33:28.807Z,24.80
2018-08-07T21:37:32.032Z,24.80
2018-08-07T21:45:38.020Z,24.60
2018-08-07T21:49:41.101Z,24.60
2018-08-07T21:57:47.175Z,24.60
2018-08-07T22:01:50.404Z,24.40
2018-08-07T22:05:53.493Z,24.50
2018-08-07T22:09:56.608Z,24.60
2018-08-07T22:13:59.671Z,24.50
2018-08-07T22:18:02.766Z,24.60
2018-08-07T22:22:05.967Z,24.60
2018-08-07T22:26:09.083Z,24.70
2018-08-07T22:30:21.179Z,24.80
2018-08-07T22:34:24.495Z,24.80
2018-08-07T22:38:27.571Z,24.90
2018-08-07T22:42:30.815Z,24.80
2018-08-07T22:46:33.928Z,24.90
2018-08-07T22:50:37.145Z,24.90
2018-08-07T22:54:40.402Z,24.90
2018-08-07T22:58:43.535Z,24.90
2018-08-07T23:02:46.623Z,25.00
2018-08-07T23:06:49.743Z,25.00
2018-08-07T23:10:52.807Z,25.00
2018-08-07T23:14:56.027Z,24.80
2018-08-07T23:18:59.107Z,24.90
2018-08-07T23:23:02.207Z,24.70
2018-08-07T23:27:05.295Z,24.70
2018-08-07T23:31:08.424Z,24.70
2018-08-07T23:35:12.174Z,24.60
2018-08-07T23:39:15.295Z,24.60
2018-08-07T23:43:18.363Z,24.50
2018-08-07T23:47:21.480Z,24.50
2018-08-07T23:51:24.557Z,24.40
2018-08-07T23:55:27.757Z,24.40
2018-08-07T23:59:30.820Z,24.30
